createdAt,value
2018-12-18T00:01:06.135Z,0.66
2018-12-18T00:03:39.297Z,0.68
2018-12-18T00:06:06.351Z,0.64
2018-12-18T00:08:35.707Z,0.63
2018-12-18T00:11:04.471Z,0.63
2018-12-18T00:13:33.566Z,0.66
2018-12-18T00:16:03.133Z,0.71
2018-12-18T00:18:32.399Z,0.78
2018-12-18T00:21:01.533Z,0.84
2018-12-18T00:23:30.701Z,0.94
2018-12-18T00:25:59.738Z,0.93
2018-12-18T00:28:28.934Z,0.90
2018-12-18T00:30:58.235Z,0.86
2018-12-18T00:33:27.257Z,0.87
2018-12-18T00:35:56.523Z,0.85
2018-12-18T00:38:25.904Z,0.86
2018-12-18T00:40:55.214Z,0.87
2018-12-18T00:43:24.259Z,0.87
2018-12-18T00:45:53.462Z,0.78
2018-12-18T00:48:22.558Z,0.74
2018-12-18T00:50:51.514Z,0.71
2018-12-18T00:53:20.386Z,0.73
2018-12-18T00:55:49.377Z,0.73
2018-12-18T00:58:18.629Z,0.77
2018-12-18T01:00:47.633Z,0.77
2018-12-18T01:03:17.135Z,0.78
2018-12-18T01:05:46.276Z,0.68
2018-12-18T01:08:15.464Z,0.61
2018-12-18T01:10:44.843Z,0.61
2018-12-18T01:13:14.195Z,0.58
2018-12-18T01:15:43.155Z,0.57
2018-12-18T01:18:12.438Z,0.58
2018-12-18T01:20:41.876Z,0.55
2018-12-18T01:23:10.937Z,0.55
2018-12-18T01:25:40.218Z,0.51
2018-12-18T01:28:09.227Z,0.48
2018-12-18T01:30:38.494Z,0.47
2018-12-18T01:33:07.663Z,0.43
2018-12-18T01:35:36.981Z,0.41
2018-12-18T01:38:06.146Z,0.42
2018-12-18T01:40:35.415Z,0.39
2018-12-18T01:43:04.580Z,0.40
2018-12-18T01:45:33.649Z,0.39
2018-12-18T01:48:02.815Z,0.39
2018-12-18T01:50:31.729Z,0.40
2018-12-18T01:53:01.141Z,0.39
2018-12-18T01:55:30.490Z,0.47
2018-12-18T01:57:59.396Z,0.44
2018-12-18T02:00:28.362Z,0.39
2018-12-18T02:02:58.015Z,0.39
2018-12-18T02:05:27.113Z,0.40
2018-12-18T02:07:56.457Z,0.40
2018-12-18T02:10:25.823Z,0.34
2018-12-18T02:12:54.710Z,0.36
2018-12-18T02:15:23.831Z,0.33
2018-12-18T02:17:52.952Z,0.30
2018-12-18T02:20:22.179Z,0.26
2018-12-18T02:22:51.504Z,0.23
2018-12-18T02:25:21.230Z,0.24
2018-12-18T02:27:50.391Z,0.25
2018-12-18T02:30:19.480Z,0.27
2018-12-18T02:32:48.804Z,0.25
2018-12-18T02:35:17.795Z,0.29
2018-12-18T02:37:47.126Z,0.30
2018-12-18T02:40:16.371Z,0.34
2018-12-18T02:42:45.490Z,0.28
2018-12-18T02:45:14.751Z,0.22
2018-12-18T02:47:44.054Z,0.21
2018-12-18T02:50:12.846Z,0.26
2018-12-18T02:52:42.274Z,0.27
2018-12-18T02:55:11.746Z,0.26
2018-12-18T02:57:40.760Z,0.26
2018-12-18T03:00:10.009Z,0.25
2018-12-18T03:02:39.311Z,0.22
2018-12-18T03:05:08.561Z,0.23
2018-12-18T03:07:37.707Z,0.25
2018-12-18T03:10:07.131Z,0.24
2018-12-18T03:12:36.312Z,0.25
2018-12-18T03:15:06.211Z,0.29
2018-12-18T03:17:35.333Z,0.41
2018-12-18T03:20:04.553Z,0.44
2018-12-18T03:22:33.535Z,0.46
2018-12-18T03:25:03.305Z,0.49
2018-12-18T03:27:32.869Z,0.37
2018-12-18T03:30:01.894Z,0.36
2018-12-18T03:32:36.261Z,0.32
2018-12-18T03:35:06.275Z,0.32
2018-12-18T03:37:35.440Z,0.30
2018-12-18T03:40:05.903Z,0.32
2018-12-18T03:42:35.159Z,0.31
2018-12-18T03:45:06.553Z,0.33
2018-12-18T03:47:36.075Z,0.36
2018-12-18T03:50:05.551Z,0.34
2018-12-18T03:52:34.578Z,0.28
2018-12-18T03:55:04.511Z,0.22
2018-12-18T03:57:33.533Z,0.20
2018-12-18T04:00:02.610Z,0.18
2018-12-18T04:02:31.725Z,0.20
2018-12-18T04:05:00.759Z,0.20
2018-12-18T04:07:29.940Z,0.24
2018-12-18T04:09:59.350Z,0.26
2018-12-18T04:12:28.480Z,0.27
2018-12-18T04:15:03.010Z,0.33
2018-12-18T04:17:32.089Z,0.31
2018-12-18T04:20:01.036Z,0.37
2018-12-18T04:22:30.306Z,0.35
2018-12-18T04:24:59.598Z,0.34
2018-12-18T04:27:28.943Z,0.38
2018-12-18T04:29:58.103Z,0.37
2018-12-18T04:32:27.391Z,0.39
2018-12-18T04:34:56.557Z,0.39
2018-12-18T04:37:25.838Z,0.38
2018-12-18T04:39:54.809Z,0.34
2018-12-18T04:42:23.715Z,0.26
2018-12-18T04:44:52.938Z,0.17
2018-12-18T04:47:22.380Z,0.12
2018-12-18T04:49:51.357Z,0.08
2018-12-18T04:52:20.612Z,0.04
2018-12-18T04:54:49.461Z,0.04
2018-12-18T04:57:18.813Z,0.07
2018-12-18T04:59:47.956Z,0.15
2018-12-18T05:02:17.119Z,0.20
2018-12-18T05:04:50.259Z,0.23
2018-12-18T05:07:17.781Z,0.22
2018-12-18T05:09:46.792Z,0.24
2018-12-18T05:12:15.771Z,0.30
2018-12-18T05:14:45.136Z,0.27
2018-12-18T05:17:14.270Z,0.25
2018-12-18T05:19:43.283Z,0.28
2018-12-18T05:22:12.456Z,0.29
2018-12-18T05:24:41.363Z,0.30
2018-12-18T05:27:10.860Z,0.24
2018-12-18T05:29:40.258Z,0.30
2018-12-18T05:32:09.271Z,0.35
2018-12-18T05:34:38.472Z,0.40
2018-12-18T05:37:07.774Z,0.41
2018-12-18T05:39:36.694Z,0.34
2018-12-18T05:42:05.555Z,0.38
2018-12-18T05:44:35.423Z,0.44
2018-12-18T05:47:05.127Z,0.43
2018-12-18T05:49:34.242Z,0.45
2018-12-18T05:52:03.414Z,0.40
2018-12-18T05:54:32.278Z,0.37
2018-12-18T05:57:01.553Z,0.38
2018-12-18T05:59:30.946Z,0.37
2018-12-18T06:02:00.045Z,0.39
2018-12-18T06:04:29.148Z,0.36
2018-12-18T06:06:58.394Z,0.31
2018-12-18T06:09:27.492Z,0.32
2018-12-18T06:11:56.668Z,0.34
2018-12-18T06:14:25.938Z,0.28
2018-12-18T06:16:54.929Z,0.22
2018-12-18T06:19:23.866Z,-0.24
2018-12-18T06:21:52.983Z,0.16
2018-12-18T06:24:22.130Z,0.14
2018-12-18T06:26:50.993Z,0.15
2018-12-18T06:29:20.020Z,0.10
2018-12-18T06:31:48.828Z,0.09
2018-12-18T06:34:17.775Z,0.08
2018-12-18T06:36:46.875Z,0.12
2018-12-18T06:39:15.813Z,0.14
2018-12-18T06:41:44.886Z,0.14
2018-12-18T06:44:14.131Z,0.07
2018-12-18T06:46:43.003Z,0.11
2018-12-18T06:49:11.963Z,0.12
2018-12-18T06:51:41.011Z,0.13
2018-12-18T06:54:09.922Z,0.14
2018-12-18T06:56:38.839Z,0.07
2018-12-18T06:59:07.793Z,-0.01
2018-12-18T07:01:36.802Z,-0.12
2018-12-18T07:04:06.087Z,-0.11
2018-12-18T07:06:35.152Z,-0.08
2018-12-18T07:09:05.553Z,-0.08
2018-12-18T07:11:34.336Z,-0.11
2018-12-18T07:14:04.441Z,-0.06
2018-12-18T07:16:33.620Z,0.06
2018-12-18T07:19:02.946Z,0.16
2018-12-18T07:21:31.967Z,0.21
2018-12-18T07:24:00.821Z,0.15
2018-12-18T07:26:29.728Z,0.12
2018-12-18T07:28:58.962Z,0.08
2018-12-18T07:31:27.986Z,0.10
2018-12-18T07:33:56.839Z,0.12
2018-12-18T07:36:25.697Z,0.08
2018-12-18T07:38:54.809Z,0.13
2018-12-18T07:41:23.656Z,0.10
2018-12-18T07:43:53.475Z,0.08
2018-12-18T07:46:22.801Z,0.12
2018-12-18T07:48:51.621Z,0.15
2018-12-18T07:51:20.893Z,0.24
2018-12-18T07:53:49.786Z,0.18
2018-12-18T07:56:18.578Z,0.19
2018-12-18T07:58:47.465Z,0.21
2018-12-18T08:01:16.607Z,0.16
2018-12-18T08:03:45.528Z,0.14
2018-12-18T08:06:14.357Z,0.11
2018-12-18T08:08:43.550Z,0.13
2018-12-18T08:11:12.474Z,0.12
2018-12-18T08:13:41.559Z,0.10
2018-12-18T08:16:10.688Z,0.13
2018-12-18T08:18:39.779Z,0.12
2018-12-18T08:21:08.974Z,0.16
2018-12-18T08:23:38.061Z,0.21
2018-12-18T08:26:06.984Z,0.19
2018-12-18T08:28:35.771Z,0.19
2018-12-18T08:31:04.891Z,0.21
2018-12-18T08:33:33.733Z,0.20
2018-12-18T08:36:02.628Z,0.26
2018-12-18T08:38:31.786Z,0.34
2018-12-18T08:41:00.573Z,0.40
2018-12-18T08:43:29.716Z,0.35
2018-12-18T08:45:58.792Z,0.34
2018-12-18T08:48:27.548Z,0.38
2018-12-18T08:50:56.448Z,0.35
2018-12-18T08:53:25.488Z,0.34
2018-12-18T08:55:54.708Z,0.34
2018-12-18T08:58:23.677Z,0.35
2018-12-18T09:00:52.728Z,0.36
2018-12-18T09:03:22.120Z,0.33
2018-12-18T09:05:51.149Z,0.38
2018-12-18T09:08:20.106Z,0.40
2018-12-18T09:10:48.867Z,0.39
2018-12-18T09:13:17.781Z,0.42
2018-12-18T09:15:52.184Z,0.41
2018-12-18T09:18:21.027Z,0.47
2018-12-18T09:20:49.824Z,0.51
2018-12-18T09:23:19.318Z,0.48
2018-12-18T09:25:48.216Z,0.50
2018-12-18T09:28:17.056Z,0.55
2018-12-18T09:30:46.396Z,0.55
2018-12-18T09:33:15.358Z,0.40
2018-12-18T09:35:49.705Z,0.62
2018-12-18T09:38:20.422Z,0.68
2018-12-18T09:40:54.595Z,0.71
2018-12-18T09:43:29.738Z,0.75
2018-12-18T09:45:58.579Z,0.76
2018-12-18T09:48:28.130Z,0.72
2018-12-18T09:50:57.147Z,0.77
2018-12-18T09:53:26.223Z,0.75
2018-12-18T09:55:55.194Z,0.78
2018-12-18T09:58:24.608Z,0.80
2018-12-18T10:00:53.484Z,0.84
2018-12-18T10:03:22.884Z,0.91
2018-12-18T10:05:56.350Z,0.96
2018-12-18T10:08:23.463Z,0.99
2018-12-18T10:10:52.746Z,1.02
2018-12-18T10:13:22.037Z,1.12
2018-12-18T10:15:51.128Z,1.20
2018-12-18T10:18:20.264Z,0.44
2018-12-18T10:20:49.237Z,1.35
2018-12-18T10:23:18.348Z,1.39
2018-12-18T10:25:48.094Z,1.47
2018-12-18T10:28:17.067Z,1.52
2018-12-18T10:30:46.057Z,1.53
2018-12-18T10:33:15.129Z,1.53
2018-12-18T10:35:44.107Z,1.60
2018-12-18T10:38:12.972Z,1.65
2018-12-18T10:40:42.056Z,1.69
2018-12-18T10:43:11.254Z,1.71
2018-12-18T10:45:40.088Z,1.66
2018-12-18T10:48:08.896Z,1.65
2018-12-18T10:50:38.167Z,1.61
2018-12-18T10:53:07.072Z,1.66
2018-12-18T10:55:35.864Z,1.66
2018-12-18T10:58:04.978Z,1.67
2018-12-18T11:00:39.021Z,1.70
2018-12-18T11:03:08.284Z,1.69
2018-12-18T11:05:37.070Z,1.68
2018-12-18T11:08:05.990Z,1.73
2018-12-18T11:10:35.081Z,1.71
2018-12-18T11:13:09.127Z,1.71
2018-12-18T11:15:38.206Z,1.72
2018-12-18T11:18:07.216Z,1.71
2018-12-18T11:20:36.490Z,1.70
2018-12-18T11:23:05.736Z,1.70
2018-12-18T11:25:34.705Z,1.77
2018-12-18T11:28:03.611Z,1.55
2018-12-18T11:30:32.818Z,1.72
2018-12-18T11:33:01.704Z,1.67
2018-12-18T11:35:30.647Z,1.65
2018-12-18T11:37:59.994Z,1.66
2018-12-18T11:40:28.882Z,1.75
2018-12-18T11:42:57.988Z,1.75
2018-12-18T11:45:27.387Z,1.79
2018-12-18T11:47:56.204Z,1.78
2018-12-18T11:50:25.098Z,1.83
2018-12-18T11:52:54.372Z,1.88
2018-12-18T11:55:23.887Z,1.88
2018-12-18T11:57:52.754Z,1.91
2018-12-18T12:00:23.101Z,1.80
2018-12-18T12:02:52.031Z,1.84
2018-12-18T12:05:20.946Z,1.87
2018-12-18T12:07:50.083Z,1.93
2018-12-18T12:10:19.024Z,1.92
2018-12-18T12:12:47.873Z,1.93
2018-12-18T12:15:17.091Z,1.95
2018-12-18T12:17:46.230Z,1.98
2018-12-18T12:20:15.181Z,1.98
2018-12-18T12:22:44.423Z,2.01
2018-12-18T12:25:13.229Z,2.03
2018-12-18T12:27:47.339Z,2.07
2018-12-18T12:30:16.327Z,2.08
2018-12-18T12:32:45.314Z,2.07
2018-12-18T12:35:14.666Z,2.20
2018-12-18T12:37:43.480Z,2.25
2018-12-18T12:40:12.553Z,2.22
2018-12-18T12:42:41.546Z,2.21
2018-12-18T12:45:10.450Z,2.21
2018-12-18T12:47:39.273Z,2.22
2018-12-18T12:50:09.292Z,2.17
2018-12-18T12:52:38.120Z,2.23
2018-12-18T12:55:07.024Z,2.21
2018-12-18T13:00:28.795Z,2.21
2018-12-18T13:02:57.747Z,2.16
2018-12-18T13:05:26.652Z,2.08
2018-12-18T13:07:56.303Z,2.02
2018-12-18T13:13:18.195Z,2.10
2018-12-18T13:15:47.104Z,2.11
2018-12-18T13:18:16.101Z,2.13
2018-12-18T13:20:45.070Z,2.12
2018-12-18T13:23:13.954Z,2.10
2018-12-18T13:25:42.705Z,2.07
2018-12-18T13:28:11.929Z,2.05
2018-12-18T13:30:40.824Z,2.03
2018-12-18T13:33:09.779Z,2.03
2018-12-18T13:35:39.000Z,2.00
2018-12-18T13:38:08.289Z,2.06
2018-12-18T13:40:37.242Z,2.06
2018-12-18T13:43:06.105Z,2.07
2018-12-18T13:45:35.145Z,2.08
2018-12-18T13:48:04.469Z,2.08
2018-12-18T13:50:33.502Z,2.05
2018-12-18T13:53:02.657Z,2.13
2018-12-18T13:55:36.631Z,2.14
2018-12-18T13:58:02.832Z,2.20
2018-12-18T14:00:31.911Z,2.16
2018-12-18T14:03:00.878Z,2.15
2018-12-18T14:05:29.960Z,2.15
2018-12-18T14:07:59.206Z,2.11
2018-12-18T14:10:28.182Z,2.15
2018-12-18T14:12:57.276Z,2.09
2018-12-18T14:15:27.166Z,2.03
2018-12-18T14:17:56.326Z,2.15
2018-12-18T14:20:25.485Z,2.10
2018-12-18T14:22:54.558Z,2.15
2018-12-18T14:25:24.293Z,2.22
2018-12-18T14:27:53.184Z,2.26
2018-12-18T14:30:22.221Z,2.33
2018-12-18T14:32:51.063Z,2.32
2018-12-18T14:35:51.301Z,2.32
2018-12-18T14:38:20.169Z,2.27
2018-12-18T14:40:49.314Z,2.24
2018-12-18T14:43:19.041Z,2.30
2018-12-18T14:45:48.164Z,2.32
2018-12-18T14:48:16.990Z,2.29
2018-12-18T14:50:46.165Z,2.27
2018-12-18T14:53:15.451Z,2.22
2018-12-18T14:55:50.975Z,2.19
2018-12-18T14:58:19.884Z,2.26
2018-12-18T15:00:48.893Z,2.23
2018-12-18T15:03:18.372Z,2.27
2018-12-18T15:05:47.361Z,2.38
2018-12-18T15:08:16.461Z,2.32
2018-12-18T15:10:45.996Z,2.37
2018-12-18T15:13:14.871Z,2.42
2018-12-18T15:15:43.870Z,2.48
2018-12-18T15:18:12.858Z,2.46
2018-12-18T15:20:41.709Z,2.38
2018-12-18T15:23:10.552Z,2.37
2018-12-18T15:25:39.743Z,2.34
2018-12-18T15:28:08.832Z,2.32
2018-12-18T15:30:37.630Z,2.29
2018-12-18T15:33:06.693Z,2.31
2018-12-18T15:35:35.882Z,2.38
2018-12-18T15:38:04.814Z,2.42
2018-12-18T15:40:34.136Z,1.65
2018-12-18T15:43:03.947Z,2.53
2018-12-18T15:45:32.920Z,2.40
2018-12-18T15:48:02.031Z,2.37
2018-12-18T15:50:31.054Z,2.42
2018-12-18T15:52:59.824Z,2.42
2018-12-18T15:55:28.765Z,2.49
2018-12-18T15:57:57.645Z,2.52
2018-12-18T16:00:26.445Z,2.52
2018-12-18T16:02:55.571Z,2.41
2018-12-18T16:05:24.550Z,2.32
2018-12-18T16:07:53.405Z,2.37
2018-12-18T16:10:22.464Z,2.37
2018-12-18T16:12:51.382Z,2.34
2018-12-18T16:15:20.393Z,2.39
2018-12-18T16:17:49.340Z,2.41
2018-12-18T16:20:18.223Z,2.37
2018-12-18T16:22:47.111Z,2.33
2018-12-18T16:25:16.236Z,2.31
2018-12-18T16:27:45.287Z,2.33
2018-12-18T16:30:14.246Z,2.32
2018-12-18T16:32:43.275Z,2.30
2018-12-18T16:35:12.184Z,2.36
2018-12-18T16:37:40.989Z,2.44
2018-12-18T16:40:10.143Z,2.43
2018-12-18T16:42:39.493Z,2.34
2018-12-18T16:45:08.509Z,2.33
2018-12-18T16:47:37.674Z,2.37
2018-12-18T16:50:06.695Z,2.32
2018-12-18T16:52:35.693Z,2.40
2018-12-18T16:55:05.934Z,2.37
2018-12-18T16:57:34.881Z,2.36
2018-12-18T17:00:03.989Z,2.40
2018-12-18T17:02:33.386Z,2.36
2018-12-18T17:05:02.472Z,2.31
2018-12-18T17:07:31.450Z,2.31
2018-12-18T17:10:00.381Z,2.31
2018-12-18T17:12:29.393Z,2.34
2018-12-18T17:16:01.698Z,2.36
2018-12-18T17:18:30.675Z,2.34
2018-12-18T17:20:59.551Z,2.39
2018-12-18T17:23:28.742Z,2.44
2018-12-18T17:25:57.679Z,2.50
2018-12-18T17:28:26.527Z,2.53
2018-12-18T17:30:55.632Z,2.50
2018-12-18T17:33:24.560Z,2.55
2018-12-18T17:35:53.388Z,2.59
2018-12-18T17:38:23.728Z,2.56
2018-12-18T17:40:53.115Z,2.53
2018-12-18T17:43:22.434Z,2.52
2018-12-18T17:45:51.447Z,2.51
2018-12-18T17:48:20.298Z,2.55
2018-12-18T17:50:49.653Z,2.65
2018-12-18T17:53:18.733Z,2.56
2018-12-18T17:55:47.725Z,2.61
2018-12-18T17:58:16.954Z,2.74
2018-12-18T18:00:46.314Z,2.77
2018-12-18T18:03:15.443Z,2.82
2018-12-18T18:05:44.770Z,2.80
2018-12-18T18:08:14.296Z,2.66
2018-12-18T18:10:43.391Z,2.67
2018-12-18T18:13:12.583Z,2.75
2018-12-18T18:15:41.814Z,2.75
2018-12-18T18:18:10.816Z,2.72
2018-12-18T18:20:39.679Z,2.73
2018-12-18T18:23:09.315Z,2.75
2018-12-18T18:25:38.105Z,2.77
2018-12-18T18:28:07.242Z,2.84
2018-12-18T18:30:36.476Z,2.86
2018-12-18T18:33:06.167Z,2.85
2018-12-18T18:35:35.018Z,2.81
2018-12-18T18:38:04.237Z,2.81
2018-12-18T18:40:33.719Z,2.84
2018-12-18T18:43:02.938Z,2.82
2018-12-18T18:45:32.107Z,2.81
2018-12-18T18:48:00.966Z,2.83
2018-12-18T18:50:30.212Z,2.86
2018-12-18T18:52:59.593Z,2.80
2018-12-18T18:55:28.542Z,2.83
2018-12-18T18:57:57.418Z,2.82
2018-12-18T19:00:26.412Z,2.87
2018-12-18T19:02:55.263Z,2.87
2018-12-18T19:05:24.198Z,2.84
2018-12-18T19:07:56.433Z,2.93
2018-12-18T19:10:24.242Z,2.97
2018-12-18T19:12:57.652Z,2.97
2018-12-18T19:15:26.771Z,2.92
2018-12-18T19:17:56.095Z,2.88
2018-12-18T19:20:25.547Z,2.90
2018-12-18T19:22:54.599Z,2.86
2018-12-18T19:25:24.674Z,2.88
2018-12-18T19:27:54.073Z,2.93
2018-12-18T19:30:23.313Z,2.90
2018-12-18T19:32:52.119Z,2.93
2018-12-18T19:35:21.492Z,2.90
2018-12-18T19:37:50.678Z,2.90
2018-12-18T19:40:19.568Z,2.88
2018-12-18T19:42:48.767Z,2.89
2018-12-18T19:45:17.861Z,2.82
2018-12-18T19:47:47.096Z,2.86
2018-12-18T19:50:16.715Z,2.89
2018-12-18T19:52:45.864Z,2.93
2018-12-18T19:55:15.092Z,2.94
2018-12-18T19:57:44.137Z,2.94
2018-12-18T20:00:13.200Z,2.98
2018-12-18T20:02:42.024Z,3.00
2018-12-18T20:05:11.707Z,3.01
2018-12-18T20:07:40.927Z,3.02
2018-12-18T20:10:10.065Z,3.02
2018-12-18T20:12:39.838Z,3.01
2018-12-18T20:15:08.948Z,3.07
2018-12-18T20:17:38.128Z,3.07
2018-12-18T20:20:08.361Z,3.08
2018-12-18T20:22:37.616Z,3.13
2018-12-18T20:25:06.988Z,3.16
2018-12-18T20:27:36.062Z,3.09
2018-12-18T20:30:05.619Z,3.07
2018-12-18T20:32:34.862Z,3.05
2018-12-18T20:35:04.015Z,3.10
2018-12-18T20:37:33.189Z,3.14
2018-12-18T20:40:02.205Z,3.09
2018-12-18T20:42:31.715Z,3.06
2018-12-18T20:45:00.960Z,3.02
2018-12-18T20:47:30.099Z,3.02
2018-12-18T20:49:59.418Z,3.05
2018-12-18T20:52:28.307Z,3.04
2018-12-18T20:54:57.491Z,3.08
2018-12-18T20:57:26.893Z,3.11
2018-12-18T20:59:56.186Z,3.15
2018-12-18T21:02:25.603Z,3.06
2018-12-18T21:04:54.994Z,3.15
2018-12-18T21:07:24.219Z,3.12
2018-12-18T21:09:53.366Z,3.06
2018-12-18T21:12:22.666Z,2.99
2018-12-18T21:14:51.497Z,3.01
2018-12-18T21:17:20.774Z,3.02
2018-12-18T21:19:50.757Z,3.07
2018-12-18T21:22:20.125Z,3.06
2018-12-18T21:24:49.248Z,3.04
2018-12-18T21:27:18.706Z,3.10
2018-12-18T21:29:47.691Z,3.13
2018-12-18T21:32:16.937Z,3.11
2018-12-18T21:34:46.213Z,3.08
2018-12-18T21:37:15.626Z,3.07
2018-12-18T21:39:44.793Z,3.14
2018-12-18T21:42:14.110Z,3.20
2018-12-18T21:44:43.474Z,3.26
2018-12-18T21:47:12.516Z,3.21
2018-12-18T21:49:41.965Z,3.27
2018-12-18T21:52:11.119Z,3.29
2018-12-18T21:54:40.164Z,3.27
2018-12-18T21:57:09.276Z,3.22
2018-12-18T21:59:38.395Z,3.18
2018-12-18T22:02:07.489Z,3.10
2018-12-18T22:04:36.798Z,3.12
2018-12-18T22:07:05.977Z,3.15
2018-12-18T22:09:35.104Z,3.16
2018-12-18T22:12:04.355Z,3.16
2018-12-18T22:14:33.556Z,3.16
2018-12-18T22:17:02.720Z,3.14
2018-12-18T22:19:32.167Z,3.21
2018-12-18T22:22:01.191Z,3.26
2018-12-18T22:24:30.148Z,3.27
2018-12-18T22:26:59.418Z,3.24
2018-12-18T22:29:28.465Z,3.26
2018-12-18T22:31:57.888Z,3.29
2018-12-18T22:34:27.273Z,3.28
2018-12-18T22:36:56.374Z,3.33
2018-12-18T22:39:25.351Z,3.35
2018-12-18T22:41:54.940Z,3.30
2018-12-18T22:44:24.201Z,3.27
2018-12-18T22:46:53.467Z,3.26
2018-12-18T22:49:22.945Z,3.30
2018-12-18T22:51:51.941Z,3.31
2018-12-18T22:54:21.187Z,3.27
2018-12-18T22:56:50.629Z,3.37
2018-12-18T22:59:19.453Z,3.38
2018-12-18T23:01:48.499Z,3.34
2018-12-18T23:04:17.807Z,3.30
2018-12-18T23:06:46.866Z,3.32
2018-12-18T23:09:16.964Z,3.27
2018-12-18T23:11:46.982Z,3.28
2018-12-18T23:14:16.263Z,3.30
2018-12-18T23:16:45.407Z,3.30
2018-12-18T23:19:14.735Z,3.30
2018-12-18T23:21:43.818Z,3.32
2018-12-18T23:24:12.795Z,3.28
2018-12-18T23:26:42.132Z,3.34
2018-12-18T23:29:11.139Z,3.26
2018-12-18T23:31:40.217Z,3.28
2018-12-18T23:34:09.274Z,3.31
2018-12-18T23:36:38.374Z,3.28
2018-12-18T23:39:08.726Z,3.30
2018-12-18T23:41:38.382Z,3.29
2018-12-18T23:44:07.600Z,3.25
2018-12-18T23:46:36.607Z,3.17
2018-12-18T23:49:05.933Z,3.19
2018-12-18T23:51:35.083Z,3.23
2018-12-18T23:54:04.242Z,3.21
2018-12-18T23:56:33.422Z,3.18
2018-12-18T23:59:03.252Z,3.21
